Time;durP1;ratioP1;P1;durP2;ratioP2;P2;SDS_P1;SDS_P2;PMS_P1;PMS_P2;Temp;Humidity;BMP_temperature;BMP_pressure;BME280_temperature;BME280_humidity;BME280_pressure;Samples;Min_cycle;Max_cycle;Signal;HPM_P1;HPM_P2
2023/01/04 00:01:14;;;;;;;6.10;2.22;;;9.60;90.80;;;;;;5026932;28;20037;-65
2023/01/04 00:03:40;;;;;;;4.70;2.33;;;9.60;90.80;;;;;;5025884;28;20497;-66
2023/01/04 00:06:06;;;;;;;7.60;2.60;;;9.70;90.80;;;;;;5027347;28;20026;-66
2023/01/04 00:08:33;;;;;;;5.57;2.55;;;9.70;90.90;;;;;;5027273;28;20033;-66
2023/01/04 00:11:03;;;;;;;5.38;2.20;;;9.70;91.00;;;;;;5026034;28;20075;-66
2023/01/04 00:13:30;;;;;;;7.55;2.42;;;9.60;91.10;;;;;;5019685;28;20033;-66
2023/01/04 00:15:56;;;;;;;6.80;2.72;;;9.60;91.30;;;;;;5024236;28;20053;-66
2023/01/04 00:18:22;;;;;;;7.15;2.50;;;9.60;91.60;;;;;;5024784;28;20037;-66
2023/01/04 00:20:47;;;;;;;7.38;2.75;;;9.60;91.80;;;;;;5027907;28;20048;-66
2023/01/04 00:23:13;;;;;;;7.70;2.88;;;9.50;91.90;;;;;;5026961;28;20029;-66
2023/01/04 00:25:39;;;;;;;7.47;2.50;;;9.50;92.10;;;;;;5025128;28;20040;-66
2023/01/04 00:28:04;;;;;;;6.35;2.47;;;9.50;92.20;;;;;;5022353;28;20511;-66
2023/01/04 00:30:30;;;;;;;6.28;2.55;;;9.50;92.30;;;;;;5027067;28;20438;-66
2023/01/04 00:32:57;;;;;;;6.85;2.60;;;9.50;92.50;;;;;;5028272;28;20041;-66
2023/01/04 00:35:22;;;;;;;7.35;2.80;;;9.50;92.60;;;;;;5027899;28;20025;-67
2023/01/04 00:37:48;;;;;;;6.80;2.67;;;9.50;92.80;;;;;;5027273;28;20553;-67
2023/01/04 00:40:14;;;;;;;5.78;2.47;;;9.50;92.90;;;;;;5026602;28;20657;-66
2023/01/04 00:42:39;;;;;;;6.90;2.63;;;9.50;93.00;;;;;;5031084;28;20087;-66
2023/01/04 00:45:05;;;;;;;7.43;2.50;;;9.50;93.20;;;;;;5031985;28;20104;-66
2023/01/04 00:47:31;;;;;;;8.18;3.42;;;9.50;93.40;;;;;;5031853;28;20057;-66
2023/01/04 00:49:56;;;;;;;8.68;2.60;;;9.50;93.50;;;;;;5031923;28;20049;-66
2023/01/04 00:52:22;;;;;;;8.82;2.88;;;9.40;93.70;;;;;;5032407;28;20127;-66
2023/01/04 00:54:47;;;;;;;6.57;2.38;;;9.40;93.90;;;;;;5030926;28;20022;-66
2023/01/04 00:57:13;;;;;;;7.47;2.60;;;9.40;94.00;;;;;;5029231;28;20068;-67
2023/01/04 00:59:39;;;;;;;5.45;2.10;;;9.40;94.10;;;;;;5031893;28;20029;-67
2023/01/04 01:02:04;;;;;;;6.25;2.58;;;9.50;94.20;;;;;;5039248;28;20032;-67
2023/01/04 01:04:30;;;;;;;6.10;2.63;;;9.50;94.40;;;;;;5030879;28;20022;-66
2023/01/04 01:06:56;;;;;;;7.63;3.03;;;9.40;94.50;;;;;;5031356;28;20029;-66
2023/01/04 01:09:22;;;;;;;10.27;2.65;;;9.50;94.60;;;;;;5028255;28;20029;-66
2023/01/04 01:11:48;;;;;;;5.35;2.63;;;9.40;94.80;;;;;;5030508;28;20105;-66
2023/01/04 01:14:18;;;;;;;5.82;2.50;;;9.40;95.00;;;;;;5030436;28;20032;-66
2023/01/04 01:16:44;;;;;;;7.55;2.72;;;9.50;95.10;;;;;;5027363;28;20396;-66
2023/01/04 01:19:09;;;;;;;6.07;2.45;;;9.50;95.20;;;;;;5025391;28;20031;-67
2023/01/04 01:21:36;;;;;;;5.90;2.90;;;9.40;95.30;;;;;;5031717;28;20030;-66
2023/01/04 01:24:02;;;;;;;3.28;2.10;;;9.50;95.50;;;;;;5030523;28;20112;-66
2023/01/04 01:26:27;;;;;;;5.82;2.72;;;9.50;95.60;;;;;;5032104;28;20129;-66
2023/01/04 01:28:53;;;;;;;6.05;2.60;;;9.50;95.70;;;;;;5023792;28;20021;-66
2023/01/04 01:31:25;;;;;;;4.00;2.20;;;9.50;95.90;;;;;;5027615;28;20040;-67
2023/01/04 01:33:52;;;;;;;7.28;2.83;;;9.50;96.00;;;;;;5030452;28;20424;-67
2023/01/04 01:36:20;;;;;;;4.22;2.38;;;9.50;96.10;;;;;;5031252;28;20550;-67
2023/01/04 01:38:46;;;;;;;3.55;1.85;;;9.50;96.30;;;;;;5030549;28;20454;-66
2023/01/04 01:41:18;;;;;;;4.07;2.15;;;9.50;96.40;;;;;;5029406;28;20484;-66
2023/01/04 01:43:54;;;;;;;4.97;2.22;;;9.60;96.40;;;;;;5031914;28;20492;-66
2023/01/04 01:46:26;;;;;;;3.70;2.10;;;9.60;96.40;;;;;;5031080;28;20033;-66
2023/01/04 01:48:55;;;;;;;6.07;2.50;;;9.60;96.50;;;;;;5026398;28;20079;-66
2023/01/04 01:51:21;;;;;;;4.38;2.30;;;9.60;96.50;;;;;;5028500;28;20072;-66
2023/01/04 01:53:51;;;;;;;4.15;2.13;;;9.60;96.60;;;;;;5032155;28;20036;-66
2023/01/04 01:56:18;;;;;;;3.78;2.53;;;9.70;96.70;;;;;;5031136;28;20029;-65
2023/01/04 01:58:49;;;;;;;4.55;2.53;;;9.70;96.60;;;;;;5027632;28;20033;-66
2023/01/04 02:01:15;;;;;;;4.85;2.33;;;9.70;96.70;;;;;;5027862;28;20068;-66
2023/01/04 02:03:42;;;;;;;4.85;2.30;;;9.70;96.70;;;;;;5031320;28;20057;-65
2023/01/04 02:06:16;;;;;;;7.22;2.80;;;9.80;96.70;;;;;;5031488;28;20057;-65
2023/01/04 02:08:42;;;;;;;4.75;2.47;;;9.80;96.70;;;;;;5032346;28;20026;-66
2023/01/04 02:11:08;;;;;;;3.88;2.00;;;9.80;96.70;;;;;;5029304;28;20053;-66
2023/01/04 02:16:50;;;;;;;3.40;1.98;;;9.90;96.70;;;;;;5030838;28;20043;-65
2023/01/04 02:19:47;;;;;;;3.80;2.35;;;9.90;96.70;;;;;;5027608;28;20033;-66
2023/01/04 02:22:30;;;;;;;3.67;2.50;;;9.90;96.80;;;;;;5029609;28;20033;-66
2023/01/04 02:25:05;;;;;;;5.78;2.35;;;9.90;96.90;;;;;;5030104;28;20022;-66
2023/01/04 02:27:52;;;;;;;3.78;2.40;;;9.90;97.00;;;;;;5023898;28;20033;-66
2023/01/04 02:30:41;;;;;;;2.40;1.73;;;10.00;97.00;;;;;;5029518;28;20044;-66
2023/01/04 02:33:12;;;;;;;4.95;2.67;;;10.00;97.00;;;;;;5028882;28;20094;-66
2023/01/04 02:36:16;;;;;;;3.20;1.92;;;10.00;97.10;;;;;;5028338;28;20037;-66
2023/01/04 02:39:00;;;;;;;4.30;2.35;;;10.00;97.20;;;;;;5023873;28;20488;-66
2023/01/04 02:41:43;;;;;;;2.20;1.83;;;10.00;97.20;;;;;;5022380;28;20049;-64
2023/01/04 02:47:15;;;;;;;4.47;2.17;;;10.10;97.40;;;;;;5029827;28;20056;-64
2023/01/04 02:52:26;;;;;;;3.25;1.95;;;10.10;97.30;;;;;;5030803;28;20063;-65
2023/01/04 02:54:55;;;;;;;3.42;2.08;;;10.10;97.30;;;;;;5031188;28;20037;-65
2023/01/04 02:57:47;;;;;;;2.65;1.95;;;10.10;97.40;;;;;;5026032;28;20029;-66
2023/01/04 03:07:02;;;;;;;2.58;1.67;;;10.20;97.60;;;;;;5024313;28;20087;-66
2023/01/04 03:09:33;;;;;;;2.83;1.80;;;10.20;97.60;;;;;;5026278;28;20120;-65
2023/01/04 03:14:52;;;;;;;3.15;1.90;;;10.30;97.60;;;;;;5022506;28;20044;-67
2023/01/04 03:17:21;;;;;;;2.30;1.80;;;10.30;97.60;;;;;;5023593;28;20026;-67
2023/01/04 03:19:53;;;;;;;2.42;1.90;;;10.30;97.90;;;;;;5029103;28;20037;-66
2023/01/04 03:37:13;;;;;;;2.10;1.90;;;10.40;97.80;;;;;;5027912;28;20353;-65
2023/01/04 03:48:30;;;;;;;1.90;1.60;;;10.40;97.90;;;;;;5030094;28;20032;-66
2023/01/04 03:51:13;;;;;;;2.10;1.90;;;10.50;98.00;;;;;;5029088;28;20511;-68
2023/01/04 03:54:07;;;;;;;3.20;2.17;;;10.50;98.00;;;;;;5027081;28;20108;-67
2023/01/04 03:56:36;;;;;;;2.83;1.80;;;10.50;98.20;;;;;;5028304;28;20025;-66
2023/01/04 03:59:03;;;;;;;2.08;1.63;;;10.50;98.20;;;;;;5028216;28;20025;-68
2023/01/04 04:01:29;;;;;;;2.15;1.70;;;10.50;98.20;;;;;;5025834;28;20483;-68
2023/01/04 04:09:23;;;;;;;3.28;1.80;;;10.60;98.30;;;;;;5029914;28;20037;-68
2023/01/04 04:11:49;;;;;;;3.05;2.10;;;10.70;98.30;;;;;;5027934;28;20029;-67
2023/01/04 04:14:14;;;;;;;2.17;1.90;;;10.70;98.30;;;;;;5029267;28;20021;-67
2023/01/04 04:16:40;;;;;;;2.28;2.00;;;10.70;98.30;;;;;;5029395;28;20037;-65
2023/01/04 04:19:06;;;;;;;3.35;2.45;;;10.80;98.30;;;;;;5027996;28;20087;-68
2023/01/04 04:21:31;;;;;;;4.57;2.58;;;10.80;98.30;;;;;;5028996;28;20017;-67
2023/01/04 04:23:57;;;;;;;2.53;2.13;;;10.80;98.30;;;;;;5028745;28;20030;-66
2023/01/04 04:26:23;;;;;;;3.05;2.05;;;10.80;98.30;;;;;;5028903;28;20037;-66
2023/01/04 04:28:49;;;;;;;3.88;2.58;;;10.80;98.30;;;;;;5028622;28;20025;-66
2023/01/04 04:31:15;;;;;;;2.78;2.45;;;10.90;98.30;;;;;;5024036;28;20032;-66
2023/01/04 04:33:41;;;;;;;2.97;2.47;;;10.90;98.30;;;;;;5028348;28;20081;-66
2023/01/04 04:36:07;;;;;;;3.42;2.58;;;10.90;98.30;;;;;;5025874;28;20102;-67
2023/01/04 04:38:33;;;;;;;4.18;2.97;;;11.00;98.30;;;;;;5027939;28;20020;-65
2023/01/04 04:43:43;;;;;;;2.60;2.10;;;11.00;98.30;;;;;;5025161;28;20443;-65
2023/01/04 04:46:09;;;;;;;4.00;2.70;;;11.00;98.30;;;;;;5026397;28;20022;-67
2023/01/04 04:48:34;;;;;;;3.20;2.90;;;11.10;98.30;;;;;;5027002;28;20017;-67
2023/01/04 04:51:00;;;;;;;3.42;2.35;;;11.10;98.30;;;;;;5027706;28;20029;-67
2023/01/04 04:53:25;;;;;;;4.22;3.17;;;11.10;98.30;;;;;;5021738;28;20076;-67
2023/01/04 04:55:52;;;;;;;3.05;2.75;;;11.10;98.40;;;;;;5028818;28;20029;-67
2023/01/04 04:58:18;;;;;;;4.85;3.00;;;11.10;98.50;;;;;;5022434;28;20034;-66
2023/01/04 05:00:44;;;;;;;3.60;2.70;;;11.20;98.50;;;;;;5026042;28;20499;-65
2023/01/04 05:03:09;;;;;;;2.80;2.30;;;11.20;98.50;;;;;;5024508;28;20060;-66
2023/01/04 05:05:35;;;;;;;3.00;2.70;;;11.20;98.50;;;;;;5027276;28;20026;-67
2023/01/04 05:08:01;;;;;;;3.03;2.50;;;11.20;98.50;;;;;;5026679;28;20096;-68
2023/01/04 05:10:26;;;;;;;3.25;2.53;;;11.30;98.50;;;;;;5027357;28;20060;-66
2023/01/04 05:13:01;;;;;;;3.55;2.70;;;11.30;98.50;;;;;;5026860;28;20108;-67
2023/01/04 05:15:28;;;;;;;2.67;2.42;;;11.30;98.50;;;;;;5020652;28;20064;-67
2023/01/04 05:17:53;;;;;;;2.92;2.60;;;11.30;98.50;;;;;;5029141;28;20438;-67
2023/01/04 05:20:19;;;;;;;3.08;2.20;;;11.30;98.50;;;;;;5025803;28;20049;-67
2023/01/04 05:22:45;;;;;;;4.10;3.40;;;11.30;98.50;;;;;;5027075;28;20398;-66
2023/01/04 05:25:11;;;;;;;2.65;2.03;;;11.30;98.50;;;;;;5028225;28;20032;-65
2023/01/04 05:27:36;;;;;;;3.30;2.88;;;11.30;98.50;;;;;;5023479;28;20022;-65
2023/01/04 05:32:48;;;;;;;3.25;2.78;;;11.30;98.70;;;;;;5032458;28;20063;-67
2023/01/04 05:35:14;;;;;;;3.08;2.38;;;11.30;98.70;;;;;;5031953;28;20033;-68
2023/01/04 05:37:39;;;;;;;3.17;2.33;;;11.30;98.70;;;;;;5031918;28;20029;-67
2023/01/04 05:40:05;;;;;;;3.88;2.50;;;11.40;98.70;;;;;;5030868;28;20104;-67
2023/01/04 05:42:31;;;;;;;2.60;2.40;;;11.40;98.70;;;;;;5030771;28;20077;-65
2023/01/04 05:44:58;;;;;;;4.95;2.60;;;11.40;98.70;;;;;;5031828;28;20036;-66
2023/01/04 05:47:24;;;;;;;3.17;2.85;;;11.40;98.70;;;;;;5027481;28;20056;-68
2023/01/04 05:49:51;;;;;;;3.47;2.58;;;11.40;98.70;;;;;;5031158;28;20500;-68
2023/01/04 05:52:17;;;;;;;6.68;3.25;;;11.40;98.70;;;;;;5032203;28;20064;-69
2023/01/04 05:54:43;;;;;;;5.25;3.58;;;11.40;98.70;;;;;;5028320;28;20013;-66
2023/01/04 05:57:09;;;;;;;3.30;2.42;;;11.40;98.70;;;;;;5032076;28;20032;-68
2023/01/04 05:59:35;;;;;;;3.65;3.25;;;11.40;98.80;;;;;;5031927;28;20384;-68
2023/01/04 06:02:01;;;;;;;4.13;3.10;;;11.40;98.80;;;;;;5030306;28;20399;-68
2023/01/04 06:04:26;;;;;;;5.53;3.70;;;11.40;98.80;;;;;;5029903;28;20092;-68
2023/01/04 06:06:52;;;;;;;4.07;2.90;;;11.40;98.90;;;;;;5032232;28;20480;-67
2023/01/04 06:09:18;;;;;;;5.22;3.15;;;11.40;99.00;;;;;;5031031;28;20032;-66
2023/01/04 06:11:43;;;;;;;6.00;3.80;;;11.40;99.00;;;;;;5032390;28;20130;-68
2023/01/04 06:14:09;;;;;;;3.17;2.60;;;11.40;99.10;;;;;;5031697;28;20030;-68
2023/01/04 06:16:35;;;;;;;3.50;2.78;;;11.40;99.10;;;;;;5029712;28;20503;-68
2023/01/04 06:19:01;;;;;;;3.28;2.50;;;11.40;99.20;;;;;;5031098;28;20025;-67
2023/01/04 06:21:27;;;;;;;2.40;2.20;;;11.50;99.20;;;;;;5032410;28;20100;-67
2023/01/04 06:23:53;;;;;;;4.32;3.05;;;11.50;99.20;;;;;;5031426;28;20109;-68
2023/01/04 06:26:19;;;;;;;2.67;2.28;;;11.50;99.20;;;;;;5031199;28;20376;-68
2023/01/04 06:28:45;;;;;;;3.40;2.97;;;11.50;99.50;;;;;;5029823;28;20017;-67
2023/01/04 06:31:11;;;;;;;2.97;2.30;;;11.50;99.20;;;;;;5031470;28;20025;-66
2023/01/04 06:33:37;;;;;;;3.92;2.20;;;11.50;99.30;;;;;;5031507;28;20025;-66
2023/01/04 06:36:03;;;;;;;2.30;2.10;;;11.60;99.30;;;;;;5031220;28;20164;-66
2023/01/04 06:38:30;;;;;;;2.40;2.00;;;11.60;99.30;;;;;;5029838;28;20029;-68
2023/01/04 06:40:55;;;;;;;3.40;2.47;;;11.60;99.30;;;;;;5031217;28;20022;-67
2023/01/04 06:43:21;;;;;;;4.32;3.55;;;11.60;99.30;;;;;;5031137;28;20041;-67
2023/01/04 06:45:47;;;;;;;4.57;2.40;;;11.60;99.40;;;;;;5031529;28;20041;-67
2023/01/04 06:48:12;;;;;;;4.10;2.53;;;11.60;99.50;;;;;;5030418;28;20056;-67
2023/01/04 06:50:38;;;;;;;2.65;2.33;;;11.70;99.50;;;;;;5030114;28;20523;-67
2023/01/04 06:53:04;;;;;;;2.63;2.40;;;11.70;99.60;;;;;;5030790;28;20480;-67
2023/01/04 06:55:29;;;;;;;2.55;2.30;;;11.70;99.40;;;;;;5031095;28;20439;-67
2023/01/04 06:57:56;;;;;;;3.83;2.50;;;11.70;99.40;;;;;;5031563;28;20033;-66
2023/01/04 07:00:22;;;;;;;2.50;2.30;;;11.70;99.40;;;;;;5030997;28;20021;-67
2023/01/04 07:02:47;;;;;;;2.97;2.65;;;11.80;99.40;;;;;;5031122;28;20102;-66
2023/01/04 07:05:13;;;;;;;3.47;3.17;;;11.80;99.40;;;;;;5030146;28;20052;-67
2023/01/04 07:07:38;;;;;;;3.15;2.47;;;11.80;99.30;;;;;;5029759;28;20140;-67
2023/01/04 07:10:05;;;;;;;3.80;3.15;;;11.80;99.30;;;;;;5029456;28;20495;-67
2023/01/04 07:12:31;;;;;;;3.45;2.17;;;11.80;99.30;;;;;;5019122;28;20033;-67
2023/01/04 07:14:56;;;;;;;3.78;2.50;;;11.90;99.20;;;;;;5030631;28;20052;-66
2023/01/04 07:17:22;;;;;;;2.63;2.25;;;11.90;99.20;;;;;;5028888;28;20072;-66
2023/01/04 07:19:47;;;;;;;3.47;2.70;;;11.90;99.10;;;;;;5030777;28;20030;-66
2023/01/04 07:22:13;;;;;;;5.30;3.13;;;12.00;99.10;;;;;;5029843;28;20136;-67
2023/01/04 07:24:39;;;;;;;2.70;2.33;;;12.00;99.00;;;;;;5024499;28;20060;-65
2023/01/04 07:27:04;;;;;;;4.18;2.50;;;11.90;98.90;;;;;;5028831;28;20029;-66
2023/01/04 07:29:30;;;;;;;3.58;2.65;;;12.00;98.90;;;;;;5023577;28;20017;-65
2023/01/04 07:31:56;;;;;;;4.88;3.08;;;12.00;98.90;;;;;;5027677;28;20432;-66
2023/01/04 07:34:26;;;;;;;4.03;2.60;;;11.90;98.90;;;;;;5027518;28;20025;-66
2023/01/04 07:36:51;;;;;;;4.18;2.63;;;11.90;98.90;;;;;;5029964;28;20034;-65
2023/01/04 07:39:18;;;;;;;4.00;2.78;;;12.00;98.90;;;;;;5029249;28;20036;-67
2023/01/04 07:41:44;;;;;;;3.15;2.45;;;12.00;99.10;;;;;;5022978;28;20022;-68
2023/01/04 07:44:11;;;;;;;4.35;2.30;;;12.00;98.80;;;;;;5029517;28;20407;-67
2023/01/04 07:46:37;;;;;;;3.55;2.30;;;12.00;98.70;;;;;;5028649;28;20056;-66
2023/01/04 07:49:04;;;;;;;6.68;2.90;;;12.00;98.70;;;;;;5029616;28;20056;-67
2023/01/04 07:51:31;;;;;;;3.00;2.30;;;12.00;98.60;;;;;;5025584;28;20104;-67
2023/01/04 07:53:57;;;;;;;5.32;3.05;;;12.00;98.60;;;;;;5030274;28;20029;-66
2023/01/04 07:56:23;;;;;;;3.13;2.00;;;12.00;98.50;;;;;;5026044;28;20025;-67
2023/01/04 07:58:49;;;;;;;2.22;2.03;;;12.10;98.50;;;;;;5026332;28;20029;-67
2023/01/04 08:01:17;;;;;;;2.92;2.22;;;12.10;98.50;;;;;;5025948;28;20052;-67
2023/01/04 08:03:44;;;;;;;3.95;2.53;;;12.10;98.40;;;;;;5024471;28;20053;-69
2023/01/04 08:06:12;;;;;;;4.78;2.17;;;12.10;98.40;;;;;;5031080;28;20057;-68
2023/01/04 08:08:38;;;;;;;4.25;2.40;;;12.10;98.40;;;;;;5027640;28;20026;-69
2023/01/04 08:11:09;;;;;;;3.65;2.17;;;12.10;98.40;;;;;;5026956;28;20029;-69
2023/01/04 08:13:35;;;;;;;3.25;2.10;;;12.10;98.40;;;;;;5025943;28;20052;-67
2023/01/04 08:16:01;;;;;;;4.18;2.50;;;12.10;98.40;;;;;;5027173;28;20090;-67
2023/01/04 08:18:26;;;;;;;4.38;2.65;;;12.00;98.40;;;;;;5025868;28;20492;-66
2023/01/04 08:21:07;;;;;;;4.93;2.70;;;12.10;98.50;;;;;;5027514;28;20037;-68
2023/01/04 08:23:33;;;;;;;4.07;2.42;;;12.10;98.50;;;;;;5024813;28;20091;-68
2023/01/04 08:26:04;;;;;;;4.72;3.10;;;12.10;98.50;;;;;;5028732;28;20022;-67
2023/01/04 08:28:30;;;;;;;4.43;2.65;;;12.10;98.50;;;;;;5027496;28;20679;-68
2023/01/04 08:30:55;;;;;;;4.47;2.50;;;12.10;98.60;;;;;;5025930;28;20033;-68
2023/01/04 08:33:21;;;;;;;3.72;2.40;;;12.10;98.60;;;;;;5028404;28;20029;-68
2023/01/04 08:35:47;;;;;;;4.45;2.47;;;12.10;98.60;;;;;;5028412;28;20037;-68
2023/01/04 08:38:12;;;;;;;3.22;2.92;;;12.10;98.60;;;;;;5029294;28;20032;-67
2023/01/04 08:40:38;;;;;;;4.80;2.80;;;12.10;98.60;;;;;;5029451;28;20067;-69
2023/01/04 08:43:03;;;;;;;4.93;2.88;;;12.20;98.70;;;;;;5028811;28;20119;-68
2023/01/04 08:45:29;;;;;;;4.03;2.38;;;12.20;98.60;;;;;;5028830;28;20083;-68
2023/01/04 08:47:54;;;;;;;5.28;2.80;;;12.20;98.70;;;;;;5027237;28;20021;-67
2023/01/04 08:50:20;;;;;;;4.32;2.70;;;12.20;98.70;;;;;;5027300;28;20026;-68
2023/01/04 08:52:46;;;;;;;3.42;2.40;;;12.20;98.70;;;;;;5021127;28;20585;-68
2023/01/04 08:55:12;;;;;;;4.53;2.63;;;12.20;98.70;;;;;;5024011;28;20026;-69
2023/01/04 08:57:37;;;;;;;3.53;2.20;;;12.20;98.80;;;;;;5027544;28;20402;-67
2023/01/04 09:00:05;;;;;;;4.60;2.60;;;12.20;99.10;;;;;;5026534;28;20483;-68
2023/01/04 09:02:30;;;;;;;3.55;2.30;;;12.30;98.90;;;;;;5025426;28;20034;-68
2023/01/04 09:04:59;;;;;;;3.97;2.70;;;12.30;99.00;;;;;;5021854;28;20076;-69
2023/01/04 09:07:28;;;;;;;3.17;2.40;;;12.30;99.00;;;;;;5031584;28;20029;-69
2023/01/04 09:09:53;;;;;;;4.35;2.40;;;12.20;99.10;;;;;;5027927;28;20365;-67
2023/01/04 09:12:19;;;;;;;3.90;2.55;;;12.20;99.20;;;;;;5025009;28;20056;-68
2023/01/04 09:14:44;;;;;;;3.58;2.70;;;12.20;99.20;;;;;;5019322;28;20515;-67
2023/01/04 09:17:10;;;;;;;6.13;2.58;;;12.20;99.30;;;;;;5023741;28;20095;-67
2023/01/04 09:19:36;;;;;;;3.05;2.22;;;12.20;99.40;;;;;;5029180;28;20029;-68
2023/01/04 09:22:02;;;;;;;4.07;2.28;;;12.30;99.40;;;;;;5030648;28;20061;-66
2023/01/04 09:24:28;;;;;;;4.88;2.72;;;12.30;99.40;;;;;;5029502;28;20032;-68
2023/01/04 09:26:53;;;;;;;2.78;2.50;;;12.30;99.40;;;;;;5026348;28;20022;-69
2023/01/04 09:29:19;;;;;;;3.08;2.40;;;12.30;99.40;;;;;;5022795;28;20034;-68
2023/01/04 09:31:45;;;;;;;3.45;2.35;;;12.30;99.50;;;;;;5027021;28;20022;-68
2023/01/04 09:34:11;;;;;;;3.55;2.00;;;12.40;99.40;;;;;;5028940;28;20029;-70
2023/01/04 09:36:37;;;;;;;3.78;2.42;;;12.40;99.40;;;;;;5029354;28;20112;-68
2023/01/04 09:39:02;;;;;;;2.90;2.30;;;12.40;99.40;;;;;;5027337;28;20180;-67
2023/01/04 09:41:43;;;;;;;6.65;3.17;;;12.40;99.50;;;;;;5030502;28;20074;-67
2023/01/04 09:44:08;;;;;;;3.55;2.33;;;12.40;99.40;;;;;;5032031;28;20049;-67
2023/01/04 09:46:53;;;;;;;4.28;2.60;;;12.40;99.50;;;;;;5032420;28;20026;-67
2023/01/04 09:49:30;;;;;;;2.88;2.20;;;12.40;99.60;;;;;;5025286;28;20091;-68
2023/01/04 09:52:08;;;;;;;4.13;2.90;;;12.50;99.60;;;;;;5025705;28;20512;-68
2023/01/04 09:54:49;;;;;;;4.22;2.40;;;12.50;99.60;;;;;;5018774;28;20048;-68
2023/01/04 09:57:25;;;;;;;4.72;2.78;;;12.50;99.60;;;;;;5029339;28;20052;-68
2023/01/04 09:59:58;;;;;;;3.35;2.30;;;12.50;99.60;;;;;;5023309;28;20057;-68
2023/01/04 10:02:32;;;;;;;3.15;2.30;;;12.40;99.70;;;;;;5025572;28;20120;-69
2023/01/04 10:05:00;;;;;;;5.15;3.00;;;12.50;99.80;;;;;;5031142;28;20254;-69
2023/01/04 10:07:29;;;;;;;3.95;2.40;;;12.50;99.70;;;;;;5022916;28;21257;-69
2023/01/04 10:09:55;;;;;;;3.13;2.30;;;12.50;99.80;;;;;;5023840;28;20026;-68
2023/01/04 10:12:41;;;;;;;3.33;2.65;;;12.50;99.80;;;;;;5031037;28;20025;-67
2023/01/04 10:15:30;;;;;;;4.88;2.60;;;12.50;99.80;;;;;;5031188;28;20042;-69
2023/01/04 10:18:22;;;;;;;3.60;2.42;;;12.50;99.90;;;;;;5026654;28;20037;-67
2023/01/04 10:21:04;;;;;;;4.95;2.40;;;12.50;99.80;;;;;;5026780;28;20033;-68
2023/01/04 10:24:07;;;;;;;3.85;2.33;;;12.50;99.80;;;;;;5031857;28;20036;-67
2023/01/04 10:26:45;;;;;;;3.88;2.13;;;12.50;99.90;;;;;;5030733;28;20396;-68
2023/01/04 10:29:43;;;;;;;3.83;2.10;;;12.50;99.90;;;;;;5028078;28;20124;-68
2023/01/04 10:32:24;;;;;;;4.68;2.67;;;12.60;99.90;;;;;;5029282;28;20511;-68
2023/01/04 10:34:52;;;;;;;2.70;2.30;;;12.60;99.90;;;;;;5030503;28;20531;-68
2023/01/04 10:37:23;;;;;;;2.40;1.83;;;12.50;99.90;;;;;;5030186;28;20104;-68
2023/01/04 10:39:53;;;;;;;3.67;2.08;;;12.50;99.90;;;;;;5030409;28;20022;-68
2023/01/04 10:42:42;;;;;;;3.38;2.40;;;12.60;99.90;;;;;;5031216;28;20038;-69
2023/01/04 10:45:17;;;;;;;2.30;2.10;;;12.60;99.90;;;;;;5029934;28;20014;-69
2023/01/04 10:48:03;;;;;;;2.45;2.00;;;12.60;99.90;;;;;;5028440;28;20029;-67
2023/01/04 10:50:55;;;;;;;2.28;1.80;;;12.60;99.90;;;;;;5029234;28;20494;-67
2023/01/04 10:53:43;;;;;;;3.45;2.10;;;12.70;99.90;;;;;;5028663;28;20817;-68
2023/01/04 10:56:33;;;;;;;3.85;2.40;;;12.70;99.90;;;;;;5027525;28;20044;-66
2023/01/04 10:59:08;;;;;;;3.33;2.80;;;12.70;99.90;;;;;;5027037;28;20044;-68
2023/01/04 11:01:39;;;;;;;2.20;2.00;;;12.60;99.90;;;;;;5023829;28;20824;-68
2023/01/04 11:04:11;;;;;;;3.60;2.63;;;12.70;99.90;;;;;;5025630;28;20026;-68
2023/01/04 11:06:54;;;;;;;3.53;2.92;;;12.70;99.90;;;;;;5025481;28;20045;-66
2023/01/04 11:09:26;;;;;;;2.33;2.08;;;12.70;99.90;;;;;;5027545;28;20031;-66
2023/01/04 11:11:55;;;;;;;2.25;1.80;;;12.70;99.90;;;;;;5025128;28;20033;-67
2023/01/04 11:14:22;;;;;;;2.25;2.05;;;12.70;99.90;;;;;;5026855;28;20069;-69
2023/01/04 11:16:51;;;;;;;2.92;2.20;;;12.80;99.90;;;;;;5025592;28;20076;-66
2023/01/04 11:19:16;;;;;;;3.25;2.30;;;12.70;99.90;;;;;;5026509;28;20104;-68
2023/01/04 11:22:14;;;;;;;3.40;2.42;;;12.70;99.90;;;;;;5025122;28;20105;-68
2023/01/04 11:24:43;;;;;;;3.20;2.30;;;12.80;99.90;;;;;;5024294;28;20033;-67
2023/01/04 11:27:16;;;;;;;2.63;2.20;;;12.80;99.90;;;;;;5026150;28;20526;-69
2023/01/04 11:29:47;;;;;;;2.15;1.95;;;12.80;99.90;;;;;;5025096;28;20056;-68
2023/01/04 11:32:26;;;;;;;2.15;1.90;;;12.80;99.90;;;;;;5037791;28;20033;-66
2023/01/04 11:34:56;;;;;;;2.20;2.00;;;12.80;99.90;;;;;;5023540;28;20029;-68
2023/01/04 11:37:24;;;;;;;1.90;1.80;;;12.80;99.90;;;;;;5023268;28;20037;-70
2023/01/04 11:39:50;;;;;;;2.47;2.00;;;12.80;99.90;;;;;;5025738;28;20041;-67
2023/01/04 11:42:20;;;;;;;2.15;1.90;;;12.80;99.90;;;;;;5023881;28;20140;-68
2023/01/04 11:44:57;;;;;;;2.63;1.85;;;12.80;99.90;;;;;;5020952;28;20431;-67
2023/01/04 11:47:24;;;;;;;2.65;2.00;;;12.90;99.90;;;;;;5023617;28;20083;-67
2023/01/04 11:49:50;;;;;;;3.78;2.30;;;12.80;99.90;;;;;;5024841;28;20025;-67
2023/01/04 11:52:28;;;;;;;2.67;2.08;;;12.80;99.90;;;;;;5022380;28;20025;-66
2023/01/04 11:54:53;;;;;;;2.10;1.90;;;12.80;99.90;;;;;;5022438;28;20037;-66
2023/01/04 11:57:20;;;;;;;2.40;1.90;;;12.80;99.90;;;;;;5025128;28;20033;-68
2023/01/04 12:00:12;;;;;;;2.33;2.13;;;12.80;99.90;;;;;;5026520;28;20033;-66
2023/01/04 12:02:38;;;;;;;;;;;12.80;99.90;;;;;;5019611;28;20051;-67
2023/01/04 12:05:17;;;;;;;2.30;2.10;;;12.80;99.90;;;;;;5025391;28;20415;-67
2023/01/04 12:07:43;;;;;;;3.95;2.38;;;12.80;99.90;;;;;;5023812;28;20573;-66
2023/01/04 12:10:25;;;;;;;2.30;2.10;;;12.80;99.90;;;;;;5024019;28;20017;-67
2023/01/04 12:12:52;;;;;;;2.95;2.05;;;12.80;99.90;;;;;;5021208;28;20029;-69
2023/01/04 12:15:52;;;;;;;2.00;1.80;;;12.80;99.90;;;;;;5024665;28;20029;-67
2023/01/04 12:18:27;;;;;;;1.90;1.80;;;12.90;99.90;;;;;;5025228;28;20056;-68
2023/01/04 12:20:54;;;;;;;2.42;2.22;;;12.90;99.90;;;;;;5021588;28;20033;-67
2023/01/04 12:23:20;;;;;;;2.45;2.25;;;12.90;99.90;;;;;;5025436;28;20083;-66
2023/01/04 12:25:50;;;;;;;3.40;2.17;;;12.90;99.90;;;;;;5024743;28;20115;-67
2023/01/04 12:28:34;;;;;;;3.28;2.85;;;13.00;99.90;;;;;;5025517;28;20223;-66
2023/01/04 12:31:18;;;;;;;3.40;2.30;;;13.00;99.90;;;;;;5024034;28;20038;-66
2023/01/04 12:33:48;;;;;;;5.15;3.00;;;13.10;99.90;;;;;;5023914;28;20064;-67
2023/01/04 12:36:19;;;;;;;3.45;2.28;;;13.10;99.70;;;;;;5023000;28;20105;-67
2023/01/04 12:38:51;;;;;;;4.18;2.45;;;13.10;99.60;;;;;;5023885;28;20034;-67
2023/01/04 12:41:59;;;;;;;3.67;2.80;;;13.20;99.60;;;;;;5019792;28;20144;-68
2023/01/04 12:44:39;;;;;;;4.05;2.95;;;13.10;99.40;;;;;;5016715;28;20034;-67
2023/01/04 12:50:16;;;;;;;6.18;2.90;;;13.20;99.30;;;;;;5025319;28;20107;-68
2023/01/04 12:52:48;;;;;;;3.30;2.27;;;13.20;99.10;;;;;;5019124;28;20088;-66
2023/01/04 12:55:31;;;;;;;5.32;3.33;;;13.20;99.10;;;;;;5023890;28;20302;-68
2023/01/04 12:58:02;;;;;;;3.83;2.75;;;13.20;99.00;;;;;;5022223;28;20029;-67
2023/01/04 13:00:50;;;;;;;5.57;2.80;;;13.20;98.80;;;;;;5022227;28;20037;-67
2023/01/04 13:03:16;;;;;;;5.85;2.60;;;13.20;98.60;;;;;;5024487;28;20028;-68
2023/01/04 13:06:05;;;;;;;5.63;2.60;;;13.30;98.50;;;;;;5024144;28;20582;-67
2023/01/04 13:08:40;;;;;;;4.88;2.50;;;13.30;98.40;;;;;;5021457;28;20033;-67
2023/01/04 13:11:17;;;;;;;2.88;2.53;;;13.40;98.20;;;;;;5023697;28;20013;-69
2023/01/04 13:13:58;;;;;;;5.35;2.67;;;13.40;98.00;;;;;;5024839;28;20077;-65
2023/01/04 13:17:01;;;;;;;5.32;2.70;;;13.40;97.90;;;;;;5023672;28;20109;-67
2023/01/04 13:19:28;;;;;;;4.68;2.40;;;13.40;97.70;;;;;;5022346;28;20622;-66
2023/01/04 13:21:54;;;;;;;4.88;2.80;;;13.40;97.50;;;;;;5023793;28;20029;-66
2023/01/04 13:24:33;;;;;;;5.78;2.60;;;13.50;97.40;;;;;;5024310;28;20049;-67
2023/01/04 13:27:27;;;;;;;5.18;2.47;;;13.50;97.30;;;;;;5024794;28;20018;-67
2023/01/04 13:29:53;;;;;;;4.22;2.38;;;13.50;97.10;;;;;;5022159;28;20562;-67
2023/01/04 13:32:23;;;;;;;4.90;2.15;;;13.50;97.00;;;;;;5023533;28;20037;-67
2023/01/04 13:35:00;;;;;;;5.18;2.65;;;13.50;96.90;;;;;;5024061;28;20037;-67
2023/01/04 13:37:34;;;;;;;4.80;2.53;;;13.60;96.80;;;;;;5025258;28;20064;-66
2023/01/04 13:40:15;;;;;;;4.20;2.22;;;13.60;96.50;;;;;;5024307;28;20029;-66
2023/01/04 13:42:44;;;;;;;5.25;2.40;;;13.60;96.50;;;;;;5023453;28;20513;-67
2023/01/04 13:45:15;;;;;;;5.10;2.75;;;13.60;96.40;;;;;;5023286;28;20057;-67
2023/01/04 13:47:42;;;;;;;3.78;2.38;;;13.60;96.20;;;;;;5022568;28;20029;-68
2023/01/04 13:50:31;;;;;;;4.70;2.50;;;13.60;96.10;;;;;;5028822;28;20112;-67
2023/01/04 13:52:56;;;;;;;4.90;2.20;;;13.60;96.10;;;;;;5027696;28;20068;-67
2023/01/04 13:55:29;;;;;;;5.35;2.65;;;13.70;96.10;;;;;;5028398;28;20784;-66
2023/01/04 13:57:57;;;;;;;5.00;3.20;;;13.70;96.00;;;;;;5025442;28;20029;-66
2023/01/04 14:00:28;;;;;;;6.20;2.63;;;13.70;95.90;;;;;;5026737;28;20034;-66